createdAt,value
2019-02-16T00:01:56.629Z,19.40
2019-02-16T00:04:29.928Z,21.53
2019-02-16T00:07:03.208Z,19.97
2019-02-16T00:09:36.508Z,20.87
2019-02-16T00:12:10.811Z,18.93
2019-02-16T00:14:44.186Z,22.03
2019-02-16T00:17:18.303Z,17.20
2019-02-16T00:19:51.596Z,19.47
2019-02-16T00:22:24.887Z,18.00
2019-02-16T00:24:58.002Z,24.13
2019-02-16T00:27:32.274Z,21.57
2019-02-16T00:30:06.821Z,17.73
2019-02-16T00:32:40.215Z,19.13
2019-02-16T00:35:13.538Z,21.07
2019-02-16T00:37:46.838Z,18.67
2019-02-16T00:40:20.126Z,22.77
2019-02-16T00:42:53.407Z,18.90
2019-02-16T00:45:26.707Z,19.37
2019-02-16T00:47:59.991Z,18.87
2019-02-16T00:50:33.300Z,21.33
2019-02-16T00:53:06.576Z,24.53
2019-02-16T00:55:39.875Z,18.40
2019-02-16T00:58:13.155Z,21.50
2019-02-16T01:00:46.469Z,23.13
2019-02-16T01:03:19.749Z,22.93
2019-02-16T01:05:53.053Z,25.30
2019-02-16T01:08:26.357Z,28.33
2019-02-16T01:10:59.635Z,30.90
2019-02-16T01:13:32.941Z,28.27
2019-02-16T01:16:06.226Z,26.97
2019-02-16T01:18:39.533Z,29.57
2019-02-16T01:21:12.810Z,25.40
2019-02-16T01:23:46.108Z,24.80
2019-02-16T01:26:19.386Z,24.47
2019-02-16T01:28:52.682Z,26.17
2019-02-16T01:31:25.983Z,23.20
2019-02-16T01:33:59.303Z,23.60
2019-02-16T01:36:32.585Z,21.73
2019-02-16T01:39:06.469Z,22.70
2019-02-16T01:41:39.748Z,21.97
2019-02-16T01:44:13.430Z,24.07
2019-02-16T01:46:46.707Z,21.27
2019-02-16T01:49:19.980Z,24.83
2019-02-16T01:51:53.272Z,20.50
2019-02-16T01:54:26.573Z,21.67
2019-02-16T01:56:59.845Z,24.07
2019-02-16T01:59:33.024Z,22.83
2019-02-16T02:02:06.320Z,20.53
2019-02-16T02:04:39.620Z,19.87
2019-02-16T02:07:12.893Z,20.40
2019-02-16T02:09:46.189Z,18.73
2019-02-16T02:12:19.601Z,19.30
2019-02-16T02:14:52.910Z,21.17
2019-02-16T02:17:26.212Z,20.40
2019-02-16T02:20:00.626Z,20.77
2019-02-16T02:22:33.904Z,21.37
2019-02-16T02:25:09.749Z,24.97
2019-02-16T02:27:43.035Z,24.23
2019-02-16T02:30:17.876Z,23.23
2019-02-16T02:32:51.164Z,24.00
2019-02-16T02:35:24.459Z,24.63
2019-02-16T02:37:57.761Z,16.87
2019-02-16T02:40:31.076Z,18.40
2019-02-16T02:43:04.373Z,21.37
2019-02-16T02:45:37.678Z,19.83
2019-02-16T02:48:10.956Z,23.50
2019-02-16T02:50:45.137Z,24.60
2019-02-16T02:53:18.420Z,19.20
2019-02-16T02:55:51.715Z,22.33
2019-02-16T02:58:25.009Z,25.87
2019-02-16T03:00:58.306Z,20.80
2019-02-16T03:03:31.592Z,22.70
2019-02-16T03:06:04.885Z,23.23
2019-02-16T03:08:38.150Z,23.37
2019-02-16T03:11:11.447Z,23.37
2019-02-16T03:13:44.742Z,22.70
2019-02-16T03:16:18.053Z,25.97
2019-02-16T03:18:52.308Z,22.37
2019-02-16T03:21:25.602Z,24.03
2019-02-16T03:23:58.889Z,26.33
2019-02-16T03:26:44.370Z,25.07
2019-02-16T03:29:23.611Z,22.90
2019-02-16T03:32:14.920Z,20.27
2019-02-16T03:34:57.403Z,21.83
2019-02-16T03:37:50.389Z,20.57
2019-02-16T03:40:23.663Z,26.20
2019-02-16T03:42:56.964Z,21.70
2019-02-16T03:45:30.058Z,22.93
2019-02-16T03:48:03.827Z,24.03
2019-02-16T03:50:37.112Z,22.97
2019-02-16T03:53:10.417Z,21.33
2019-02-16T03:55:43.708Z,21.27
2019-02-16T03:58:17.028Z,22.30
2019-02-16T04:00:50.299Z,24.03
2019-02-16T04:03:24.500Z,19.33
2019-02-16T04:05:57.784Z,24.00
2019-02-16T04:08:31.066Z,26.63
2019-02-16T04:11:04.347Z,25.83
2019-02-16T04:13:37.636Z,25.53
2019-02-16T04:16:10.930Z,27.13
2019-02-16T04:18:44.232Z,24.53
2019-02-16T04:21:17.516Z,25.70
2019-02-16T04:23:50.824Z,26.40
2019-02-16T04:26:24.108Z,25.60
2019-02-16T04:28:57.227Z,23.30
2019-02-16T04:31:30.511Z,22.33
2019-02-16T04:34:03.825Z,24.87
2019-02-16T04:36:37.096Z,23.93
2019-02-16T04:39:10.410Z,22.07
2019-02-16T04:41:43.698Z,23.33
2019-02-16T04:44:16.992Z,24.83
2019-02-16T04:46:50.338Z,23.50
2019-02-16T04:49:23.640Z,21.07
2019-02-16T04:51:56.732Z,20.10
2019-02-16T04:54:30.048Z,18.90
2019-02-16T04:57:03.846Z,21.20
2019-02-16T04:59:37.154Z,25.90
2019-02-16T05:02:10.517Z,31.07
2019-02-16T05:04:43.799Z,26.47
2019-02-16T05:07:18.428Z,31.70
2019-02-16T05:09:51.817Z,28.37
2019-02-16T05:12:25.108Z,27.63
2019-02-16T05:14:58.396Z,38.07
2019-02-16T05:17:31.693Z,26.67
2019-02-16T05:20:06.852Z,29.93
2019-02-16T05:22:44.696Z,26.83
2019-02-16T05:25:15.168Z,29.07
2019-02-16T05:27:48.443Z,29.43
2019-02-16T05:30:21.758Z,31.77
2019-02-16T05:32:55.093Z,27.97
2019-02-16T05:35:28.362Z,29.77
2019-02-16T05:38:01.669Z,36.50
2019-02-16T05:40:34.945Z,29.83
2019-02-16T05:43:08.267Z,27.47
2019-02-16T05:45:41.543Z,25.40
2019-02-16T05:48:14.847Z,28.93
2019-02-16T05:50:48.192Z,28.23
2019-02-16T05:53:21.502Z,23.80
2019-02-16T05:55:54.773Z,29.00
2019-02-16T05:58:28.068Z,29.60
2019-02-16T06:01:01.340Z,28.00
2019-02-16T06:03:35.142Z,25.07
2019-02-16T06:06:08.419Z,20.20
2019-02-16T06:08:41.723Z,19.83
2019-02-16T06:11:15.011Z,24.63
2019-02-16T06:13:48.306Z,20.80
2019-02-16T06:16:21.592Z,22.27
2019-02-16T06:18:54.921Z,23.93
2019-02-16T06:21:28.190Z,22.93
2019-02-16T06:24:02.592Z,28.70
2019-02-16T06:26:35.866Z,23.63
2019-02-16T06:29:09.190Z,24.77
2019-02-16T06:31:42.468Z,32.33
2019-02-16T06:34:16.873Z,32.60
2019-02-16T06:36:50.157Z,28.13
2019-02-16T06:39:23.470Z,29.57
2019-02-16T06:41:56.755Z,25.10
2019-02-16T06:44:30.061Z,30.33
2019-02-16T06:47:03.343Z,30.33
2019-02-16T06:49:36.638Z,35.30
2019-02-16T06:52:09.931Z,37.83
2019-02-16T06:54:43.202Z,37.27
2019-02-16T06:57:23.774Z,39.07
2019-02-16T06:59:57.137Z,29.67
2019-02-16T07:02:30.433Z,27.73
2019-02-16T07:05:03.910Z,25.23
2019-02-16T07:07:37.169Z,25.43
2019-02-16T07:10:10.481Z,28.43
2019-02-16T07:12:43.767Z,24.53
2019-02-16T07:15:17.090Z,25.27
2019-02-16T07:18:01.255Z,24.10
2019-02-16T07:20:35.570Z,25.50
2019-02-16T07:23:08.867Z,24.50
2019-02-16T07:25:42.186Z,22.47
2019-02-16T07:28:15.455Z,23.43
2019-02-16T07:30:48.767Z,23.03
2019-02-16T07:33:22.067Z,35.80
2019-02-16T07:35:55.469Z,24.33
2019-02-16T07:38:28.798Z,22.47
2019-02-16T07:41:03.362Z,20.20
2019-02-16T07:43:51.683Z,28.77
2019-02-16T07:46:32.363Z,23.63
2019-02-16T07:49:09.973Z,18.80
2019-02-16T07:51:47.589Z,18.63
2019-02-16T07:54:34.439Z,21.73
2019-02-16T07:57:12.312Z,20.07
2019-02-16T07:59:53.251Z,19.90
2019-02-16T08:02:28.175Z,27.80
2019-02-16T08:05:03.168Z,24.47
2019-02-16T08:07:42.739Z,23.97
2019-02-16T08:10:17.466Z,20.40
2019-02-16T08:13:01.069Z,19.07
2019-02-16T08:15:51.279Z,18.40
2019-02-16T08:18:26.197Z,18.87
2019-02-16T08:21:19.159Z,17.37
2019-02-16T08:24:10.151Z,19.47
2019-02-16T08:26:45.149Z,20.17
2019-02-16T08:29:23.046Z,21.33
2019-02-16T08:31:58.866Z,18.37
2019-02-16T08:34:33.799Z,17.23
2019-02-16T08:37:08.743Z,13.93
2019-02-16T08:39:43.663Z,16.77
2019-02-16T08:42:22.449Z,17.00
2019-02-16T08:45:06.286Z,15.67
2019-02-16T08:47:46.678Z,18.87
2019-02-16T08:50:29.513Z,15.40
2019-02-16T08:53:04.244Z,18.90
2019-02-16T08:55:39.178Z,19.43
2019-02-16T08:58:17.244Z,15.73
2019-02-16T09:00:54.962Z,14.97
2019-02-16T09:03:32.662Z,18.23
2019-02-16T09:06:12.547Z,17.97
2019-02-16T09:08:50.212Z,18.67
2019-02-16T09:11:28.086Z,14.90
2019-02-16T09:14:19.114Z,18.33
2019-02-16T09:17:02.749Z,16.73
2019-02-16T09:19:38.383Z,17.13
2019-02-16T09:22:17.711Z,17.40
2019-02-16T09:25:10.815Z,17.73
2019-02-16T09:27:45.741Z,24.37
2019-02-16T09:30:24.152Z,21.03
2019-02-16T09:32:59.064Z,16.73
2019-02-16T09:35:37.023Z,19.13
2019-02-16T09:38:21.111Z,17.73
2019-02-16T09:40:58.780Z,18.37
2019-02-16T09:43:33.700Z,17.10
2019-02-16T09:46:24.769Z,17.27
2019-02-16T09:49:17.724Z,17.83
2019-02-16T09:52:09.206Z,17.23
2019-02-16T09:54:46.978Z,15.73
2019-02-16T09:57:21.914Z,15.63
2019-02-16T10:00:03.027Z,18.27
2019-02-16T10:02:39.335Z,20.03
2019-02-16T10:05:31.483Z,20.67
2019-02-16T10:08:15.482Z,19.97
2019-02-16T10:10:53.114Z,17.10
2019-02-16T10:13:32.358Z,16.97
2019-02-16T10:16:13.128Z,16.77
2019-02-16T10:19:00.029Z,17.57
2019-02-16T10:21:43.665Z,16.73
2019-02-16T10:24:35.018Z,19.33
2019-02-16T10:27:13.356Z,16.20
2019-02-16T10:29:51.247Z,15.40
2019-02-16T10:32:26.235Z,16.10
2019-02-16T10:35:03.817Z,15.67
2019-02-16T10:37:38.796Z,19.23
2019-02-16T10:40:25.817Z,16.63
2019-02-16T10:43:06.799Z,18.20
2019-02-16T10:45:41.717Z,17.40
2019-02-16T10:48:16.679Z,17.17
2019-02-16T10:50:57.545Z,18.50
2019-02-16T10:53:35.351Z,21.20
2019-02-16T10:56:12.854Z,19.73
2019-02-16T10:58:53.710Z,20.30
2019-02-16T11:01:44.660Z,18.20
2019-02-16T11:04:19.593Z,20.70
2019-02-16T11:06:55.603Z,21.50
2019-02-16T11:09:42.365Z,17.80
2019-02-16T11:12:17.367Z,17.73
2019-02-16T11:14:55.594Z,18.80
2019-02-16T11:17:42.723Z,17.40
2019-02-16T11:20:28.229Z,16.53
2019-02-16T11:23:18.142Z,19.17
2019-02-16T11:26:09.909Z,21.80
2019-02-16T11:28:48.004Z,21.80
2019-02-16T11:31:28.946Z,18.80
2019-02-16T11:34:18.855Z,17.73
2019-02-16T11:36:56.245Z,18.20
2019-02-16T11:39:49.669Z,16.77
2019-02-16T11:42:24.602Z,16.57
2019-02-16T11:45:02.299Z,17.57
2019-02-16T11:47:42.911Z,16.80
2019-02-16T11:50:17.927Z,16.67
2019-02-16T11:53:09.006Z,19.03
2019-02-16T11:55:58.817Z,17.90
2019-02-16T11:58:50.215Z,16.23
2019-02-16T12:01:25.181Z,16.80
2019-02-16T12:04:03.096Z,16.60
2019-02-16T12:06:41.198Z,18.27
2019-02-16T12:09:19.053Z,16.87
2019-02-16T12:11:54.014Z,19.00
2019-02-16T12:14:34.472Z,18.35
2019-02-16T12:17:09.430Z,17.35
2019-02-16T12:19:44.361Z,17.77
2019-02-16T12:22:25.251Z,17.30
2019-02-16T12:25:06.505Z,22.82
2019-02-16T12:27:41.607Z,21.40
2019-02-16T12:30:32.492Z,21.85
2019-02-16T12:33:19.704Z,17.65
2019-02-16T12:36:10.750Z,21.70
2019-02-16T12:38:48.783Z,19.62
2019-02-16T12:41:26.331Z,20.27
2019-02-16T12:44:13.187Z,19.92
2019-02-16T12:47:00.106Z,21.87
2019-02-16T12:49:50.029Z,21.68
2019-02-16T12:52:40.985Z,18.77
2019-02-16T12:55:31.709Z,19.90
2019-02-16T12:58:09.131Z,18.52
2019-02-16T13:00:49.814Z,19.57
2019-02-16T13:03:30.768Z,20.32
2019-02-16T13:06:20.978Z,19.85
2019-02-16T13:09:13.927Z,20.17
2019-02-16T13:11:48.895Z,19.62
2019-02-16T13:14:27.162Z,20.15
2019-02-16T13:17:05.205Z,23.65
2019-02-16T13:19:40.136Z,21.30
2019-02-16T13:22:15.078Z,20.77
2019-02-16T13:25:08.133Z,19.40
2019-02-16T13:27:50.636Z,21.15
2019-02-16T13:30:43.788Z,20.37
2019-02-16T13:33:33.818Z,20.23
2019-02-16T13:36:08.886Z,20.82
2019-02-16T13:38:43.860Z,19.82
2019-02-16T13:41:24.327Z,19.77
2019-02-16T13:44:11.489Z,17.95
2019-02-16T13:46:58.315Z,20.30
2019-02-16T13:49:33.258Z,19.40
2019-02-16T13:52:18.593Z,21.30
2019-02-16T13:54:59.299Z,21.12
2019-02-16T13:57:34.218Z,21.12
2019-02-16T14:00:24.790Z,20.05
2019-02-16T14:03:05.569Z,20.17
2019-02-16T14:05:40.562Z,18.92
2019-02-16T14:08:15.514Z,20.65
2019-02-16T14:10:50.479Z,21.62
2019-02-16T14:13:43.463Z,20.60
2019-02-16T14:16:18.409Z,21.77
2019-02-16T14:18:51.693Z,19.52
2019-02-16T14:21:26.181Z,20.55
2019-02-16T14:23:59.412Z,21.55
2019-02-16T14:26:32.709Z,20.15
2019-02-16T14:29:06.579Z,18.70
2019-02-16T14:31:39.893Z,20.90
2019-02-16T14:34:13.207Z,21.23
2019-02-16T14:36:47.325Z,19.67
2019-02-16T14:39:22.259Z,21.93
2019-02-16T14:41:55.624Z,23.05
2019-02-16T14:44:28.919Z,22.00
2019-02-16T14:47:02.497Z,23.95
2019-02-16T14:49:35.808Z,20.62
2019-02-16T14:52:09.156Z,21.12
2019-02-16T14:54:42.467Z,20.97
2019-02-16T14:57:15.779Z,20.08
2019-02-16T14:59:49.102Z,21.37
2019-02-16T15:02:22.422Z,19.82
2019-02-16T15:04:57.075Z,18.75
2019-02-16T15:07:30.387Z,22.25
2019-02-16T15:10:05.415Z,19.73
2019-02-16T15:12:38.773Z,19.57
2019-02-16T15:15:12.141Z,21.27
2019-02-16T15:17:45.431Z,21.27
2019-02-16T15:20:18.721Z,21.35
2019-02-16T15:22:52.633Z,19.90
2019-02-16T15:25:25.905Z,21.85
2019-02-16T15:27:59.213Z,22.13
2019-02-16T15:30:32.567Z,20.52
2019-02-16T15:33:05.852Z,19.55
2019-02-16T15:35:39.145Z,22.23
2019-02-16T15:38:12.453Z,19.97
2019-02-16T15:40:45.742Z,20.87
2019-02-16T15:43:19.047Z,23.43
2019-02-16T15:45:52.335Z,20.67
2019-02-16T15:48:25.715Z,22.73
2019-02-16T15:50:59.018Z,23.23
2019-02-16T15:53:32.308Z,22.23
2019-02-16T15:56:10.427Z,24.40
2019-02-16T15:58:40.647Z,23.23
2019-02-16T16:01:13.967Z,21.17
2019-02-16T16:03:47.302Z,22.00
2019-02-16T16:06:20.564Z,23.37
2019-02-16T16:09:01.201Z,24.13
2019-02-16T16:11:38.536Z,23.30
2019-02-16T16:14:19.276Z,25.50
2019-02-16T16:17:10.568Z,27.37
2019-02-16T16:19:47.918Z,39.03
2019-02-16T16:22:34.847Z,38.60
2019-02-16T16:25:18.656Z,36.37
2019-02-16T16:27:59.585Z,35.63
2019-02-16T16:30:37.228Z,41.33
2019-02-16T16:33:30.290Z,38.43
2019-02-16T16:36:13.995Z,32.23
2019-02-16T16:39:01.076Z,34.57
2019-02-16T16:41:36.019Z,34.77
2019-02-16T16:44:27.177Z,33.70
2019-02-16T16:47:02.127Z,40.10
2019-02-16T16:49:37.078Z,32.47
2019-02-16T16:52:12.009Z,30.03
2019-02-16T16:54:55.579Z,34.20
2019-02-16T16:57:30.473Z,33.87
2019-02-16T17:00:08.335Z,29.83
2019-02-16T17:02:58.189Z,32.60
2019-02-16T17:05:52.205Z,39.00
2019-02-16T17:08:44.666Z,35.70
2019-02-16T17:11:35.695Z,33.40
2019-02-16T17:14:22.592Z,31.70
2019-02-16T17:17:12.502Z,34.23
2019-02-16T17:19:47.435Z,33.37
2019-02-16T17:22:25.511Z,36.37
2019-02-16T17:25:00.499Z,42.80
2019-02-16T17:27:41.467Z,32.87
2019-02-16T17:30:22.164Z,35.03
2019-02-16T17:33:02.625Z,30.03
2019-02-16T17:35:43.713Z,36.70
2019-02-16T17:38:21.451Z,35.10
2019-02-16T17:40:56.402Z,34.67
2019-02-16T17:43:36.781Z,32.03
2019-02-16T17:46:14.777Z,32.27
2019-02-16T17:48:49.756Z,33.40
2019-02-16T17:51:24.718Z,35.47
2019-02-16T17:54:17.474Z,36.90
2019-02-16T17:57:01.593Z,31.93
2019-02-16T17:59:36.568Z,32.13
2019-02-16T18:02:14.118Z,34.37
2019-02-16T18:05:00.805Z,25.10
2019-02-16T18:07:35.783Z,37.07
2019-02-16T18:10:19.664Z,31.93
2019-02-16T18:12:54.609Z,33.47
2019-02-16T18:15:29.563Z,39.23
2019-02-16T18:18:07.403Z,30.87
2019-02-16T18:20:42.323Z,31.73
2019-02-16T18:23:17.330Z,34.77
2019-02-16T18:25:58.014Z,33.73
2019-02-16T18:28:32.982Z,30.70
2019-02-16T18:31:24.612Z,33.07
2019-02-16T18:34:15.461Z,33.37
2019-02-16T18:36:50.418Z,39.00
2019-02-16T18:39:25.407Z,35.17
2019-02-16T18:42:03.097Z,35.33
2019-02-16T18:44:40.962Z,32.83
2019-02-16T18:47:15.918Z,38.90
2019-02-16T18:49:53.442Z,31.93
2019-02-16T18:52:31.427Z,32.77
2019-02-16T18:55:23.063Z,36.00
2019-02-16T18:58:14.239Z,36.03
2019-02-16T19:00:49.231Z,30.23
2019-02-16T19:03:30.005Z,31.53
2019-02-16T19:06:04.978Z,31.20
2019-02-16T19:08:39.920Z,28.93
2019-02-16T19:11:14.903Z,37.27
2019-02-16T19:13:55.672Z,31.50
2019-02-16T19:16:39.409Z,32.97
2019-02-16T19:19:17.024Z,30.53
2019-02-16T19:22:07.960Z,32.63
2019-02-16T19:24:48.858Z,36.07
2019-02-16T19:27:36.040Z,33.57
2019-02-16T19:30:23.577Z,31.20
2019-02-16T19:33:04.517Z,34.10
2019-02-16T19:35:39.446Z,27.67
2019-02-16T19:38:17.126Z,30.07
2019-02-16T19:41:01.228Z,26.07
2019-02-16T19:43:42.179Z,33.10
2019-02-16T19:46:23.229Z,35.00
2019-02-16T19:49:01.049Z,32.17
2019-02-16T19:51:38.483Z,36.67
2019-02-16T19:54:19.211Z,29.57
2019-02-16T19:56:56.864Z,27.90
2019-02-16T19:59:31.922Z,34.37
2019-02-16T20:02:15.851Z,28.93
2019-02-16T20:04:53.673Z,29.67
2019-02-16T20:07:40.491Z,30.40
2019-02-16T20:10:21.015Z,30.30
2019-02-16T20:13:12.459Z,30.03
2019-02-16T20:15:47.384Z,33.77
2019-02-16T20:18:24.924Z,29.53
2019-02-16T20:21:16.285Z,28.27
2019-02-16T20:24:03.309Z,26.23
2019-02-16T20:26:38.244Z,29.70
2019-02-16T20:29:15.906Z,25.57
2019-02-16T20:32:05.838Z,27.87
2019-02-16T20:34:49.961Z,25.03
2019-02-16T20:37:31.060Z,26.97
2019-02-16T20:40:22.718Z,28.93
2019-02-16T20:43:09.714Z,27.73
2019-02-16T20:45:50.311Z,26.27
2019-02-16T20:48:25.237Z,40.80
2019-02-16T20:51:00.227Z,38.30
2019-02-16T20:53:44.004Z,43.63
2019-02-16T20:56:18.948Z,42.90
2019-02-16T20:58:53.885Z,42.77
2019-02-16T21:01:31.525Z,42.67
2019-02-16T21:04:09.113Z,42.13
2019-02-16T21:06:49.790Z,46.10
2019-02-16T21:09:34.006Z,44.50
2019-02-16T21:12:20.688Z,51.27
2019-02-16T21:14:55.616Z,45.53
2019-02-16T21:17:42.472Z,44.67
2019-02-16T21:20:23.550Z,43.20
2019-02-16T21:22:58.605Z,42.40
2019-02-16T21:25:33.511Z,46.67
2019-02-16T21:28:09.144Z,40.63
2019-02-16T21:30:44.139Z,47.77
2019-02-16T21:33:25.210Z,42.43
2019-02-16T21:36:02.698Z,44.03
2019-02-16T21:38:51.329Z,44.20
2019-02-16T21:41:35.378Z,36.83
2019-02-16T21:44:28.233Z,43.37
2019-02-16T21:47:03.173Z,39.43
2019-02-16T21:49:39.520Z,38.53
2019-02-16T21:52:30.572Z,42.73
2019-02-16T21:55:06.744Z,34.60
2019-02-16T21:57:50.732Z,39.80
2019-02-16T22:00:25.665Z,37.80
2019-02-16T22:03:06.749Z,34.07
2019-02-16T22:05:50.227Z,35.00
2019-02-16T22:08:27.835Z,35.47
2019-02-16T22:11:14.745Z,37.13
2019-02-16T22:13:49.178Z,33.20
2019-02-16T22:16:22.466Z,33.87
2019-02-16T22:18:55.862Z,37.10
2019-02-16T22:21:29.234Z,35.90
2019-02-16T22:24:02.548Z,38.00
2019-02-16T22:26:35.815Z,42.77
2019-02-16T22:29:09.167Z,41.20
2019-02-16T22:31:42.467Z,41.23
2019-02-16T22:34:17.434Z,45.27
2019-02-16T22:36:50.775Z,40.67
2019-02-16T22:39:24.072Z,41.33
2019-02-16T22:41:57.358Z,41.33
2019-02-16T22:44:30.678Z,40.27
2019-02-16T22:47:04.045Z,37.07
2019-02-16T22:49:38.788Z,33.30
2019-02-16T22:52:12.075Z,38.43
2019-02-16T22:54:45.399Z,39.47
2019-02-16T22:57:18.701Z,37.50
2019-02-16T22:59:52.016Z,36.83
2019-02-16T23:02:25.381Z,34.67
2019-02-16T23:04:59.217Z,35.83
2019-02-16T23:07:32.532Z,35.07
2019-02-16T23:10:09.163Z,34.47
2019-02-16T23:12:42.467Z,36.20
2019-02-16T23:15:15.838Z,36.43
2019-02-16T23:17:49.288Z,37.40
2019-02-16T23:20:22.614Z,30.53
2019-02-16T23:22:55.915Z,36.70
2019-02-16T23:25:29.928Z,30.70
2019-02-16T23:28:03.174Z,33.10
2019-02-16T23:30:37.753Z,29.30
2019-02-16T23:33:11.069Z,31.77
2019-02-16T23:35:44.348Z,31.27
2019-02-16T23:38:17.658Z,30.97
2019-02-16T23:40:50.959Z,33.80
2019-02-16T23:43:24.289Z,34.10
2019-02-16T23:45:57.573Z,27.13
2019-02-16T23:48:30.870Z,32.70
2019-02-16T23:51:05.402Z,27.17
2019-02-16T23:53:38.684Z,30.17
2019-02-16T23:56:12.013Z,33.63
2019-02-16T23:58:49.197Z,32.80
